HB9KAX-13 Weather Reports


time (UTC)temp
F
wind
direction
speed
knots
gust
knots
rain 1hr
in
rain 24hr
in
rain mn
in
humidity
%
barometer
mb
20260902153000 79 339 0.9 1.7 0.00 0.00 0.00 45 1021.8
20260902152000 80 16 0.0 1.7 0.00 0.00 0.00 43 1021.6
20260902151000 81 66 0.9 1.7 0.00 0.00 0.00 41 1021.6
20260902150000 80 343 2.6 6.1 0.00 0.00 0.00 42 1021.8
20260902145000 80 13 0.0 2.6 0.00 0.00 0.00 42 1021.9
20260902144000 81 38 0.9 2.6 0.00 0.00 0.00 41 1021.9
20260902143000 79 324 2.6 2.6 0.00 0.00 0.00 42 1021.9
20260902142000 79 8 0.0 2.6 0.00 0.00 0.00 42 1021.9
20260902141000 81 354 0.0 0.9 0.00 0.00 0.00 40 1021.9
20260902140000 80 341 1.7 3.5 0.00 0.00 0.00 40 1022.0
20260902135000 80 339 0.9 5.2 0.00 0.00 0.00 40 1021.8
20260902134000 79 355 1.7 2.6 0.00 0.00 0.00 41 1022.2
20260902133000 78 3 0.9 5.2 0.00 0.00 0.00 41 1021.9
20260902132000 80 357 1.7 5.2 0.00 0.00 0.00 39 1022.2
20260902131000 79 18 1.7 7.0 0.00 0.00 0.00 42 1022.1
20260902130000 79 329 0.9 1.7 0.00 0.00 0.00 42 1022.2
20260902125000 78 341 0.0 2.6 0.00 0.00 0.00 44 1022.4
20260902124000 76 344 0.9 5.2 0.00 0.00 0.00 46 1022.3
20260902123000 77 356 4.3 6.1 0.00 0.00 0.00 47 1022.4
20260902122000 77 359 1.7 3.5 0.00 0.00 0.00 42 1022.5
20260902121000 78 337 0.9 1.7 0.00 0.00 0.00 44 1022.3
20260902120000 78 350 0.0 2.6 0.00 0.00 0.00 42 1022.5
20260902115000 77 322 0.9 5.2 0.00 0.00 0.00 42 1022.6
20260902114000 77 38 6.1 7.0 0.00 0.00 0.00 44 1022.8
20260902113000 76 4 2.6 3.5 0.00 0.00 0.00 46 1023.0
20260902112000 76 321 0.9 2.6 0.00 0.00 0.00 47 1023.0
20260902111000 76 327 1.7 5.2 0.00 0.00 0.00 48 1022.8
20260902110000 74 357 1.7 3.5 0.00 0.00 0.00 50 1023.2
20260902105000 74 339 1.7 2.6 0.00 0.00 0.00 54 1023.1
20260902104000 73 357 1.7 7.0 0.00 0.00 0.00 56 1023.4
20260902103000 73 62 1.7 2.6 0.00 0.00 0.00 57 1023.3
20260902102000 71 8 3.5 3.5 0.00 0.00 0.00 59 1023.3
20260902101000 72 28 3.5 5.2 0.00 0.00 0.00 59 1023.6
20260902100000 71 356 3.5 3.5 0.00 0.00 0.00 60 1023.7
20260902095000 71 342 0.9 2.6 0.00 0.00 0.00 61 1023.5
20260902094000 70 2 4.3 6.1 0.00 0.00 0.00 63 1023.8
20260902093000 69 54 3.5 5.2 0.00 0.00 0.00 64 1023.6
20260902092000 68 339 3.5 3.5 0.00 0.00 0.00 69 1023.6
20260902091000 68 328 0.9 3.5 0.00 0.00 0.00 70 1023.5
20260902090000 67 30 2.6 3.5 0.00 0.00 0.00 70 1023.8
20260902085000 66 8 2.6 2.6 0.00 0.00 0.00 73 1023.8
20260902084000 64 340 0.9 3.5 0.00 0.00 0.00 76 1023.9
20260902083000 64 357 1.7 3.5 0.00 0.00 0.00 76 1023.2
20260902082000 64 354 0.9 2.6 0.00 0.00 0.00 76 1023.6
20260902081000 64 347 0.9 1.7 0.00 0.00 0.00 76 1023.6
20260902080000 64 44 0.9 1.7 0.00 0.00 0.00 77 1023.5
20260902075000 62 99 2.6 2.6 0.00 0.00 0.00 83 1023.2
20260902074000 63 55 2.6 2.6 0.00 0.00 0.00 82 1023.0
20260902073000 62 337 0.0 0.9 0.00 0.00 0.00 80 1023.3
20260902072000 62 337 0.9 0.9 0.00 0.00 0.00 82 1023.0
20260902071000 62 323 0.9 0.9 0.00 0.00 0.00 80 1023.2
20260902070000 61 326 0.0 1.7 0.00 0.00 0.00 83 1023.1
20260902065000 58 338 0.0 0.9 0.00 0.00 0.00 90 1023.1
20260902064000 57 357 0.9 0.9 0.00 0.00 0.00 91 1023.4
20260902063000 54 335 0.9 0.9 0.00 0.00 0.00 96 1023.2
20260902062000 53 358 0.0 0.0 0.00 0.00 0.00 96 1023.3
20260902061000 53 358 0.0 0.0 0.00 0.00 0.00 97 1023.4
20260902060000 53 334 0.9 1.7 0.00 0.00 0.00 97 1023.3
20260902055000 53 349 1.7 1.7 0.00 0.00 0.00 96 1023.2
20260902054000 53 346 0.9 1.7 0.00 0.00 0.00 97 1023.1
20260902053000 53 3 0.0 0.0 0.00 0.00 0.00 98 1023.2
20260902052000 52 349 1.7 1.7 0.00 0.00 0.00 98 1023.2
20260902051000 52 343 0.9 0.9 0.00 0.00 0.00 98 1022.8
20260902050000 52 358 0.0 0.9 0.00 0.00 0.00 98 1023.0
20260902045000 52 359 0.0 0.0 0.00 0.00 0.00 98 1022.9
20260902044000 52 359 0.0 0.0 0.00 0.00 0.00 98 1022.9
20260902043000 52 359 0.0 0.9 0.00 0.00 0.00 98 1022.7
20260902042000 52 359 0.9 0.9 0.00 0.00 0.00 98 1022.8
20260902041000 52 346 0.0 0.9 0.00 0.00 0.00 98 1022.7
20260902040000 52 1 1.7 2.6 0.00 0.00 0.00 99 1022.6
20260902035000 52 332 0.9 0.9 0.00 0.00 0.00 98 1022.7
20260902034000 52 334 0.9 0.9 0.00 0.00 0.00 98 1022.5
20260902033000 52 353 0.9 1.7 0.00 0.00 0.00 98 1023.0
20260902032000 52 0 1.7 2.6 0.00 0.00 0.00 99 1022.7
20260902031000 52 330 1.7 1.7 0.00 0.00 0.00 98 1022.5
20260902030000 52 340 0.9 1.7 0.00 0.00 0.00 98 1022.7
20260902025000 53 358 0.9 0.9 0.00 0.00 0.00 98 1022.8
20260902024000 53 2 0.9 1.7 0.00 0.00 0.00 98 1022.5
20260902023000 53 5 0.9 0.9 0.00 0.00 0.00 98 1022.7
20260902022000 53 6 0.0 0.0 0.00 0.00 0.00 97 1022.7
20260902021000 53 21 0.9 0.9 0.00 0.00 0.00 97 1022.8
20260902020000 53 347 0.0 0.0 0.00 0.00 0.00 97 1022.7
20260902015000 54 350 0.0 0.0 0.00 0.00 0.00 97 1022.5
20260902014000 54 333 0.0 0.0 0.00 0.00 0.00 97 1022.5
20260902013000 54 333 0.0 0.0 0.00 0.00 0.00 97 1022.7
20260902012000 54 353 0.9 0.9 0.00 0.00 0.00 97 1022.6
20260902011000 54 348 0.9 1.7 0.00 0.00 0.00 97 1022.6
20260902010000 54 339 0.0 1.7 0.00 0.00 0.00 96 1022.8
20260902005000 54 342 0.0 0.9 0.00 0.00 0.00 96 1022.8
20260902004000 55 358 0.0 0.9 0.00 0.00 0.00 96 1022.8
20260902003000 55 345 0.9 1.7 0.00 0.00 0.00 96 1022.9
20260902002000 55 346 0.9 0.9 0.00 0.00 0.00 95 1022.7
20260902001000 56 338 0.9 0.9 0.00 0.00 0.00 94 1022.8
20260902000000 57 335 0.9 1.7 0.00 0.00 0.00 92 1022.5
20260901235000 56 340 0.0 0.9 0.00 0.00 0.00 93 1022.9
20260901234000 56 340 0.0 0.9 0.00 0.00 0.00 93 1022.6
20260901233000 57 340 0.0 0.9 0.00 0.00 0.00 93 1022.6
20260901232000 57 337 0.9 0.9 0.00 0.00 0.00 91 1022.7
20260901231000 57 340 0.0 0.0 0.00 0.00 0.00 92 1022.6
20260901230000 57 340 0.0 0.0 0.00 0.00 0.00 90 1022.6
20260901225000 58 340 0.9 0.9 0.00 0.00 0.00 91 1022.7
20260901224000 58 340 0.9 0.9 0.00 0.00 0.00 90 1022.3
20260901223000 58 339 0.0 0.0 0.00 0.00 0.00 91 1022.7
20260901222000 58 339 0.0 0.0 0.00 0.00 0.00 90 1022.8
20260901221000 58 339 0.0 0.0 0.00 0.00 0.00 89 1022.6
20260901220000 59 339 0.0 0.0 0.00 0.00 0.00 88 1022.6
20260901215000 59 339 0.9 0.9 0.00 0.00 0.00 87 1022.5
20260901214000 59 337 0.9 0.9 0.00 0.00 0.00 87 1022.4
20260901213000 60 340 0.9 0.9 0.00 0.00 0.00 86 1022.7
20260901212000 60 340 0.0 0.9 0.00 0.00 0.00 84 1022.6
20260901211000 60 341 0.0 0.9 0.00 0.00 0.00 84 1022.7
20260901210000 61 347 0.9 1.7 0.00 0.00 0.00 83 1022.8
20260901205000 61 344 1.7 1.7 0.00 0.00 0.00 80 1022.8
20260901204000 62 343 0.9 0.9 0.00 0.00 0.00 76 1022.5
20260901203000 62 341 0.9 0.9 0.00 0.00 0.00 79 1022.6
20260901202000 63 336 0.9 1.7 0.00 0.00 0.00 78 1022.8
20260901201000 63 6 0.0 0.9 0.00 0.00 0.00 75 1022.5
20260901200000 63 6 0.0 0.9 0.00 0.00 0.00 77 1022.7
20260901195000 64 7 0.9 0.9 0.00 0.00 0.00 74 1022.7
20260901194000 64 8 0.0 0.0 0.00 0.00 0.00 75 1022.5
20260901193000 65 8 0.0 0.0 0.00 0.00 0.00 72 1022.4
20260901192000 65 346 0.0 0.9 0.00 0.00 0.00 71 1022.3
20260901191000 67 317 0.0 0.0 0.00 0.00 0.00 66 1022.4
20260901190000 68 331 0.0 0.0 0.00 0.00 0.00 66 1022.2
20260901185000 68 282 0.9 1.7 0.00 0.00 0.00 63 1022.3
20260901184000 69 307 0.9 1.7 0.00 0.00 0.00 62 1022.1
20260901183000 70 295 0.9 1.7 0.00 0.00 0.00 61 1022.0
20260901182000 70 303 0.9 1.7 0.00 0.00 0.00 59 1022.0
20260901181000 71 260 1.7 1.7 0.00 0.00 0.00 58 1021.9
20260901180000 71 281 1.7 2.6 0.00 0.00 0.00 57 1021.8
20260901175000 72 262 1.7 2.6 0.00 0.00 0.00 57 1022.0
20260901174000 72 245 1.7 1.7 0.00 0.00 0.00 55 1021.7
20260901173000 72 298 1.7 1.7 0.00 0.00 0.00 56 1021.7
20260901172000 73 208 1.7 3.5 0.00 0.00 0.00 53 1021.7
20260901171000 74 247 2.6 3.5 0.00 0.00 0.00 53 1021.7
20260901170000 74 219 2.6 7.0 0.00 0.00 0.00 51 1021.7
20260901165000 75 264 1.7 3.5 0.00 0.00 0.00 49 1021.6
20260901164000 76 144 1.7 1.7 0.00 0.00 0.00 47 1021.8
20260901163000 76 27 1.7 1.7 0.00 0.00 0.00 47 1021.8
20260901162000 76 180 2.6 3.5 0.00 0.00 0.00 47 1021.7
20260901161000 76 108 3.5 3.5 0.00 0.00 0.00 47 1021.7
20260901160000 77 334 0.0 1.7 0.00 0.00 0.00 45 1021.6
20260901155000 77 206 1.7 3.5 0.00 0.00 0.00 45 1021.7
20260901154000 80 336 0.9 0.9 0.00 0.00 0.00 42 1021.6